Time;durP1;ratioP1;P1;durP2;ratioP2;P2;SDS_P1;SDS_P2;PMS_P1;PMS_P2;Temp;Humidity;BMP_temperature;BMP_pressure;BME280_temperature;BME280_humidity;BME280_pressure;Samples;Min_cycle;Max_cycle;Signal;HPM_P1;HPM_P2
2022/07/11 00:02:32;;;;;;;8.13;5.77;;;18.40;99.90;;;;;;2612522;54;20133;-77
2022/07/11 00:08:19;;;;;;;9.07;5.93;;;18.40;99.90;;;;;;2610601;54;22982;-76
2022/07/11 00:14:06;;;;;;;6.97;5.20;;;18.30;99.90;;;;;;2611528;39;20499;-75
2022/07/11 00:19:54;;;;;;;7.50;6.43;;;18.20;99.90;;;;;;2612856;54;20160;-75
2022/07/11 00:25:42;;;;;;;6.63;4.93;;;18.30;99.90;;;;;;2612793;54;20413;-76
2022/07/11 00:31:49;;;;;;;6.53;5.90;;;18.20;99.90;;;;;;2613270;39;20572;-76
2022/07/11 00:37:36;;;;;;;5.23;4.73;;;18.10;99.90;;;;;;2612805;54;20135;-77
2022/07/11 00:43:37;;;;;;;9.00;5.57;;;18.20;99.90;;;;;;2613585;54;20219;-76
2022/07/11 00:49:24;;;;;;;6.67;5.37;;;17.90;99.90;;;;;;2611443;54;20403;-75
2022/07/11 00:55:13;;;;;;;10.77;5.90;;;17.80;99.90;;;;;;2613084;54;20140;-75
2022/07/11 01:01:01;;;;;;;13.30;5.57;;;17.60;99.90;;;;;;2612271;39;20482;-76
2022/07/11 01:06:48;;;;;;;7.27;6.77;;;17.40;99.90;;;;;;2615265;54;20389;-78
2022/07/11 01:12:35;;;;;;;7.20;5.30;;;17.20;99.90;;;;;;2615757;54;20124;-76
2022/07/11 01:18:23;;;;;;;8.83;5.80;;;17.10;99.90;;;;;;2614167;54;20191;-74
2022/07/11 01:24:11;;;;;;;11.80;5.80;;;16.90;99.90;;;;;;2613976;39;20533;-77
2022/07/11 01:33:21;;;;;;;10.17;6.03;;;16.80;99.90;;;;;;2616498;31;20890;-75
2022/07/11 01:39:08;;;;;;;7.30;6.60;;;16.50;99.90;;;;;;2614391;54;20123;-75
2022/07/11 01:44:56;;;;;;;8.30;5.90;;;16.40;99.90;;;;;;2615449;54;20130;-75
2022/07/11 01:50:44;;;;;;;5.70;5.17;;;16.40;99.90;;;;;;2614427;54;20207;-77
2022/07/11 01:56:33;;;;;;;5.30;4.80;;;16.20;99.90;;;;;;2615126;39;20540;-77
2022/07/11 02:02:20;;;;;;;7.40;5.93;;;16.20;99.90;;;;;;2615090;54;20904;-76
2022/07/11 02:08:12;;;;;;;7.47;5.90;;;16.20;99.90;;;;;;2613171;54;20150;-76
2022/07/11 02:13:59;;;;;;;6.43;5.83;;;16.00;99.90;;;;;;2614981;54;20392;-76
2022/07/11 02:19:47;;;;;;;7.60;6.20;;;16.30;99.90;;;;;;2613168;54;20163;-78
2022/07/11 02:25:38;;;;;;;8.93;6.13;;;16.40;99.90;;;;;;2613630;54;20672;-76
2022/07/11 02:28:42;;;;;;;8.77;6.80;;;16.50;99.90;;;;;;2614103;46;20455;-76
2022/07/11 02:31:08;;;;;;;8.00;5.17;;;16.60;99.90;;;;;;2614239;54;21044;-76
2022/07/11 02:36:55;;;;;;;9.47;6.77;;;16.60;99.90;;;;;;2614928;54;20669;-76
2022/07/11 02:42:43;;;;;;;9.43;5.77;;;16.80;99.90;;;;;;2614951;54;20279;-77
2022/07/11 02:48:31;;;;;;;6.17;5.57;;;16.90;99.90;;;;;;2613522;54;20256;-76
2022/07/11 02:54:19;;;;;;;5.50;5.10;;;17.00;99.90;;;;;;2613749;54;20427;-74
2022/07/11 03:06:53;;;;;;;11.13;5.37;;;17.00;99.90;;;;;;2611676;54;20476;-73
2022/07/11 03:12:41;;;;;;;6.00;5.50;;;17.10;99.90;;;;;;2614749;31;20932;-74
2022/07/11 03:18:29;;;;;;;7.00;5.60;;;17.20;99.90;;;;;;2613222;54;20379;-74
2022/07/11 03:24:16;;;;;;;16.10;6.00;;;17.10;99.90;;;;;;2613370;54;20714;-74
2022/07/11 03:43:35;;;;;;;5.57;5.07;;;17.00;99.90;;;;;;2613313;39;20902;-74
2022/07/11 03:49:23;;;;;;;6.63;4.67;;;17.20;99.90;;;;;;2612309;54;20123;-75
2022/07/11 03:55:10;;;;;;;5.10;4.70;;;17.30;99.90;;;;;;2612163;54;20162;-75
2022/07/11 04:00:58;;;;;;;6.97;4.80;;;17.40;99.90;;;;;;2611562;54;20684;-75
2022/07/11 04:10:06;;;;;;;4.63;4.23;;;17.30;99.90;;;;;;2612114;54;20392;-74
2022/07/11 04:15:54;;;;;;;6.80;4.97;;;17.10;99.90;;;;;;2615861;54;20390;-75
2022/07/11 04:21:42;;;;;;;5.20;4.03;;;17.30;99.90;;;;;;2613799;54;20224;-75
2022/07/11 04:27:30;;;;;;;6.20;4.20;;;17.40;99.90;;;;;;2613798;54;20147;-74
2022/07/11 04:33:17;;;;;;;6.00;3.50;;;17.50;99.90;;;;;;2614920;54;20131;-75
2022/07/11 04:39:05;;;;;;;5.20;4.00;;;17.40;99.90;;;;;;2613938;54;20179;-75
2022/07/11 04:44:53;;;;;;;3.93;3.63;;;17.40;99.90;;;;;;2612956;54;20254;-75
2022/07/11 04:50:44;;;;;;;5.10;3.77;;;17.40;99.90;;;;;;2612957;54;20233;-76
2022/07/11 04:56:31;;;;;;;4.07;3.70;;;17.50;99.90;;;;;;2613367;39;20888;-75
2022/07/11 05:02:19;;;;;;;4.47;3.60;;;17.60;99.90;;;;;;2611838;54;20169;-75
2022/07/11 05:11:27;;;;;;;3.40;2.80;;;17.70;99.90;;;;;;2611377;54;20357;-76
2022/07/11 05:17:15;;;;;;;7.93;2.73;;;17.60;99.90;;;;;;2614208;39;20621;-75
2022/07/11 05:23:01;;;;;;;4.17;3.20;;;17.60;99.90;;;;;;2614258;54;20131;-76
2022/07/11 05:28:48;;;;;;;4.43;3.20;;;17.70;99.90;;;;;;2613589;54;20176;-75
2022/07/11 05:34:36;;;;;;;3.93;3.53;;;17.90;99.90;;;;;;2614343;54;20193;-75
2022/07/11 05:44:01;;;;;;;2.97;2.70;;;17.60;99.90;;;;;;2614383;39;20787;-75
2022/07/11 05:49:48;;;;;;;2.97;2.73;;;17.70;99.90;;;;;;2614044;54;20186;-76
2022/07/11 05:55:35;;;;;;;2.30;2.20;;;17.80;99.90;;;;;;2613849;54;20683;-74
2022/07/11 06:04:44;;;;;;;2.97;2.67;;;17.80;99.90;;;;;;2614583;54;20412;-76
2022/07/11 06:10:34;;;;;;;2.90;2.60;;;17.90;99.90;;;;;;2614130;54;20962;-74
2022/07/11 06:16:22;;;;;;;2.70;2.50;;;18.10;99.90;;;;;;2616011;54;20421;-75
2022/07/11 06:22:09;;;;;;;3.20;3.00;;;18.30;99.90;;;;;;2615646;54;20168;-74
2022/07/11 06:27:57;;;;;;;4.13;3.83;;;18.30;99.90;;;;;;2615124;54;20159;-75
2022/07/11 06:44:04;;;;;;;2.50;2.30;;;18.60;99.90;;;;;;2613976;54;20398;-75
2022/07/11 06:47:07;;;;;;;2.40;2.20;;;18.50;99.90;;;;;;2614163;54;20417;-74
2022/07/11 06:59:57;;;;;;;3.00;1.93;;;18.80;99.90;;;;;;2613698;54;20465;-75
2022/07/11 07:05:44;;;;;;;2.80;1.80;;;18.90;99.90;;;;;;2614295;54;20133;-75
2022/07/11 07:11:31;;;;;;;3.73;2.03;;;18.90;99.90;;;;;;2614064;54;20390;-75
2022/07/11 07:17:19;;;;;;;3.00;2.70;;;19.30;99.80;;;;;;2614069;54;20146;-75
2022/07/11 07:23:06;;;;;;;4.80;4.50;;;18.80;99.90;;;;;;2614161;54;20157;-75
2022/07/11 07:28:54;;;;;;;7.50;5.03;;;18.90;99.90;;;;;;2615220;54;20397;-75
2022/07/11 07:44:51;;;;;;;3.87;3.53;;;18.40;99.90;;;;;;2614335;54;20513;-75
2022/07/11 07:50:39;;;;;;;3.80;3.50;;;18.10;99.90;;;;;;2614569;54;20125;-75
2022/07/11 07:56:25;;;;;;;5.50;3.30;;;18.10;99.90;;;;;;2614853;54;20124;-74
2022/07/11 08:02:12;;;;;;;4.30;4.00;;;18.00;99.90;;;;;;2614618;54;20166;-75
2022/07/11 08:08:00;;;;;;;3.63;3.33;;;18.20;99.90;;;;;;2614811;39;20842;-74
2022/07/11 08:13:49;;;;;;;4.53;3.70;;;18.40;99.90;;;;;;2614544;54;20130;-74
2022/07/11 08:19:36;;;;;;;3.80;3.50;;;18.70;99.90;;;;;;2615961;54;20414;-75
2022/07/11 08:25:24;;;;;;;4.00;3.70;;;18.80;99.90;;;;;;2616004;54;20661;-74
2022/07/11 08:31:12;;;;;;;7.80;3.90;;;19.10;99.90;;;;;;2615137;46;20144;-74
2022/07/11 08:47:09;;;;;;;6.33;5.77;;;19.10;99.90;;;;;;2614448;39;20515;-75
2022/07/11 08:52:58;;;;;;;5.17;4.67;;;19.40;99.90;;;;;;2615149;39;20808;-75
2022/07/11 08:58:47;;;;;;;4.63;4.33;;;20.50;98.10;;;;;;2614130;54;20399;-75
2022/07/11 09:04:34;;;;;;;5.80;5.40;;;19.80;99.90;;;;;;2614520;54;20358;-74
2022/07/11 09:10:21;;;;;;;6.33;5.77;;;19.90;99.90;;;;;;2614728;54;20834;-75
2022/07/11 09:16:09;;;;;;;4.67;4.37;;;19.30;99.90;;;;;;2614543;54;20448;-75
2022/07/11 09:28:14;;;;;;;3.87;3.57;;;19.10;99.90;;;;;;2614583;54;21288;-75
2022/07/11 09:34:03;;;;;;;5.10;4.70;;;19.30;99.90;;;;;;2614632;54;20669;-75
2022/07/11 09:46:24;;;;;;;5.07;4.60;;;20.20;99.50;;;;;;2614385;54;20386;-74
2022/07/11 09:55:33;;;;;;;5.50;5.00;;;21.20;90.30;;;;;;2614203;54;20404;-75
2022/07/11 10:01:20;;;;;;;4.97;4.47;;;21.10;90.60;;;;;;2614663;39;20806;-74
2022/07/11 10:07:07;;;;;;;7.17;5.57;;;21.30;78.80;;;;;;2614626;39;20357;-75
2022/07/11 10:12:56;;;;;;;5.60;5.20;;;21.40;72.50;;;;;;2614714;54;20154;-74
2022/07/11 10:29:36;;;;;;;5.90;5.37;;;20.50;94.70;;;;;;2614495;54;20520;-76
2022/07/11 10:35:23;;;;;;;7.60;7.00;;;21.00;85.00;;;;;;2614073;54;20371;-74
2022/07/11 10:51:49;;;;;;;5.07;4.77;;;21.20;68.70;;;;;;2614116;54;20553;-75
2022/07/11 11:07:44;;;;;;;3.80;3.50;;;21.80;50.30;;;;;;2613662;54;20392;-76
2022/07/11 11:13:35;;;;;;;4.13;3.83;;;21.10;63.60;;;;;;2614073;54;20356;-75
2022/07/11 11:19:44;;;;;;;3.83;3.50;;;20.70;73.40;;;;;;2614054;54;20390;-75
2022/07/11 11:25:32;;;;;;;3.03;2.83;;;20.70;73.60;;;;;;2614198;54;20475;-75
2022/07/11 11:31:20;;;;;;;3.00;2.50;;;20.80;79.60;;;;;;2614151;54;20496;-75
2022/07/11 11:40:29;;;;;;;2.80;2.50;;;20.80;85.70;;;;;;2614065;46;20378;-75
2022/07/11 11:46:17;;;;;;;2.40;2.20;;;20.80;82.90;;;;;;2613636;54;20259;-75
2022/07/11 11:52:06;;;;;;;2.37;2.20;;;20.80;81.90;;;;;;2613249;54;20134;-77
2022/07/11 11:57:53;;;;;;;3.23;2.30;;;20.90;80.10;;;;;;2613530;54;20528;-76
2022/07/11 12:03:56;;;;;;;2.90;2.70;;;20.50;90.40;;;;;;2615544;54;20200;-75
2022/07/11 12:09:52;;;;;;;5.33;4.80;;;21.10;72.60;;;;;;2615108;54;20391;-76
2022/07/11 12:25:27;;;;;;;6.77;6.27;;;21.40;71.10;;;;;;2613150;54;20516;-75
2022/07/11 12:28:30;;;;;;;8.37;6.57;;;21.30;70.50;;;;;;2613508;54;20416;-75
2022/07/11 12:30:56;;;;;;;7.50;6.77;;;21.60;65.40;;;;;;2613278;54;20422;-76
2022/07/11 12:47:03;;;;;;;9.33;8.57;;;22.30;47.80;;;;;;2614246;54;20433;-74
2022/07/11 12:52:56;;;;;;;8.43;7.83;;;22.80;43.10;;;;;;2614664;54;20516;-74
2022/07/11 12:58:43;;;;;;;8.07;7.47;;;23.20;34.50;;;;;;2614044;54;21241;-76
2022/07/11 13:04:42;;;;;;;7.43;6.83;;;22.90;38.30;;;;;;2614652;54;20150;-74
2022/07/11 13:10:50;;;;;;;7.93;7.30;;;22.20;43.70;;;;;;2614145;54;20987;-75
2022/07/11 13:16:37;;;;;;;5.30;4.90;;;22.40;45.80;;;;;;2614045;54;20394;-74
2022/07/11 13:22:24;;;;;;;5.23;4.80;;;22.50;43.10;;;;;;2614414;54;20249;-75
2022/07/11 13:31:32;;;;;;;4.10;3.80;;;22.60;39.20;;;;;;2614631;54;21052;-75
2022/07/11 13:47:32;;;;;;;5.13;4.73;;;22.50;45.80;;;;;;2614040;54;20383;-75
2022/07/11 13:53:19;;;;;;;5.63;4.57;;;22.30;48.20;;;;;;2614781;54;20379;-74
2022/07/11 13:59:06;;;;;;;3.40;3.20;;;22.30;44.40;;;;;;2614322;54;20167;-75
2022/07/11 14:04:54;;;;;;;4.70;4.30;;;22.20;48.70;;;;;;2614392;54;20126;-75
2022/07/11 14:10:42;;;;;;;6.43;5.93;;;22.20;49.50;;;;;;2613936;54;20274;-75
2022/07/11 14:16:29;;;;;;;7.03;6.53;;;22.20;50.20;;;;;;2613381;54;20387;-74
2022/07/11 14:22:17;;;;;;;6.10;5.70;;;22.10;53.10;;;;;;2615254;54;20419;-75
2022/07/11 14:28:05;;;;;;;6.37;4.50;;;22.40;49.50;;;;;;2615512;47;20427;-73
2022/07/11 14:33:54;;;;;;;4.53;4.23;;;22.40;50.60;;;;;;2615673;54;20367;-76
2022/07/11 14:49:51;;;;;;;4.90;4.60;;;23.50;35.30;;;;;;2614437;39;20864;-74
2022/07/11 14:55:38;;;;;;;3.93;3.63;;;23.60;33.10;;;;;;2613631;54;20194;-75
2022/07/11 15:01:25;;;;;;;2.80;2.60;;;23.60;36.30;;;;;;2614413;54;20389;-73
2022/07/11 15:13:18;;;;;;;3.50;2.73;;;24.00;27.20;;;;;;2613407;54;20363;-73
2022/07/11 15:19:06;;;;;;;3.60;2.73;;;24.10;26.60;;;;;;2613927;54;20363;-73
2022/07/11 15:24:54;;;;;;;2.87;2.67;;;23.60;28.40;;;;;;2614615;54;20424;-74
2022/07/11 15:30:42;;;;;;;3.60;3.30;;;23.40;31.10;;;;;;2615511;54;20118;-74
2022/07/11 15:36:29;;;;;;;3.63;3.33;;;23.10;33.30;;;;;;2614746;54;20150;-74
2022/07/11 15:42:17;;;;;;;3.50;3.23;;;23.30;31.30;;;;;;2615892;39;20621;-75
2022/07/11 15:48:05;;;;;;;3.10;2.90;;;23.50;28.70;;;;;;2615433;39;20555;-75
2022/07/11 15:53:53;;;;;;;3.30;3.10;;;23.70;30.60;;;;;;2615426;54;21115;-76
2022/07/11 15:59:41;;;;;;;3.60;3.00;;;24.00;24.50;;;;;;2615289;54;20375;-73
2022/07/11 16:05:29;;;;;;;2.40;2.20;;;24.10;21.90;;;;;;2615163;54;20114;-75
2022/07/11 16:11:16;;;;;;;2.43;2.13;;;24.00;21.90;;;;;;2616029;54;20122;-74
2022/07/11 16:17:04;;;;;;;2.63;2.43;;;24.60;20.20;;;;;;2615738;54;20174;-75
2022/07/11 16:22:52;;;;;;;3.60;3.20;;;25.00;16.90;;;;;;2616331;54;20479;-74
2022/07/11 16:28:39;;;;;;;2.40;2.30;;;25.70;12.70;;;;;;2616114;54;20130;-74
2022/07/11 16:34:27;;;;;;;3.27;2.40;;;24.90;13.20;;;;;;2616086;54;20155;-75
2022/07/11 16:43:38;;;;;;;2.17;2.07;;;23.70;19.70;;;;;;2616099;54;20457;-76
2022/07/11 16:49:26;;;;;;;3.03;2.73;;;24.00;18.20;;;;;;2615574;54;20411;-75
2022/07/11 16:55:14;;;;;;;3.27;2.97;;;23.80;17.80;;;;;;2616168;54;20976;-75
2022/07/11 17:01:02;;;;;;;3.20;2.90;;;23.50;20.50;;;;;;2615075;54;20135;-74
2022/07/11 17:06:50;;;;;;;2.53;2.33;;;23.30;22.40;;;;;;2614881;54;20134;-74
2022/07/11 17:12:38;;;;;;;4.27;3.20;;;23.60;22.10;;;;;;2616011;54;20203;-75
2022/07/11 17:18:26;;;;;;;2.60;2.40;;;23.40;21.00;;;;;;2613458;54;20391;-74
2022/07/11 17:24:14;;;;;;;2.33;2.20;;;23.20;21.80;;;;;;2615865;54;20129;-76
2022/07/11 17:30:01;;;;;;;2.97;2.63;;;23.30;20.00;;;;;;2616099;54;20857;-74
2022/07/11 17:35:50;;;;;;;3.17;2.87;;;23.20;22.60;;;;;;2616125;54;20159;-72
2022/07/11 17:41:51;;;;;;;1.93;1.83;;;23.50;22.00;;;;;;2614897;39;20786;-74
2022/07/11 17:47:40;;;;;;;2.60;2.40;;;23.50;19.50;;;;;;2613851;54;20159;-74
2022/07/11 17:53:27;;;;;;;3.27;2.80;;;23.60;19.70;;;;;;2614264;54;20404;-74
2022/07/11 17:59:14;;;;;;;3.20;2.90;;;23.30;20.90;;;;;;2614415;54;20159;-75
2022/07/11 18:05:02;;;;;;;3.97;2.67;;;23.10;21.80;;;;;;2614532;54;20158;-74
2022/07/11 18:10:53;;;;;;;2.93;2.73;;;22.50;26.30;;;;;;2614847;39;21208;-75
2022/07/11 18:16:40;;;;;;;3.23;2.93;;;22.60;26.40;;;;;;2614733;54;20383;-74
2022/07/11 18:22:28;;;;;;;6.93;2.33;;;22.30;30.00;;;;;;2616425;39;20525;-74
2022/07/11 18:28:16;;;;;;;2.87;2.60;;;22.30;31.70;;;;;;2615710;54;20158;-76
2022/07/11 18:31:19;;;;;;;3.07;2.80;;;22.00;35.20;;;;;;2614740;50;20515;-75
2022/07/11 18:33:45;;;;;;;4.87;2.80;;;21.90;44.60;;;;;;2614310;54;20189;-75
2022/07/11 18:49:51;;;;;;;2.53;2.33;;;21.20;58.60;;;;;;2614022;39;20915;-74
2022/07/11 18:55:39;;;;;;;2.13;2.03;;;21.10;69.80;;;;;;2613976;54;20404;-74
2022/07/11 19:01:26;;;;;;;2.30;2.03;;;20.90;74.70;;;;;;2614022;54;20167;-76
2022/07/11 19:07:13;;;;;;;5.17;2.40;;;20.90;79.90;;;;;;2613652;54;20147;-75
2022/07/11 19:13:01;;;;;;;3.23;2.47;;;20.70;88.20;;;;;;2614698;39;20535;-74
2022/07/11 19:18:51;;;;;;;2.70;2.17;;;20.30;92.70;;;;;;2613346;54;20230;-75
2022/07/11 19:24:38;;;;;;;2.43;1.90;;;20.20;97.20;;;;;;2615394;46;20427;-75
2022/07/11 19:30:27;;;;;;;2.67;2.30;;;20.00;99.90;;;;;;2614802;54;20154;-75
2022/07/11 19:36:15;;;;;;;4.10;2.60;;;19.90;99.90;;;;;;2615311;54;20403;-75
2022/07/11 19:42:13;;;;;;;5.80;3.13;;;19.60;99.90;;;;;;2613987;39;20848;-76
2022/07/11 19:48:03;;;;;;;4.80;3.17;;;19.40;99.90;;;;;;2614121;47;20125;-75
2022/07/11 19:53:50;;;;;;;4.80;3.47;;;19.30;99.90;;;;;;2614679;39;20843;-75
2022/07/11 19:59:38;;;;;;;3.60;3.20;;;19.00;99.90;;;;;;2613703;54;20154;-75
2022/07/11 20:08:47;;;;;;;5.17;3.60;;;18.90;99.90;;;;;;2613483;54;20373;-75
2022/07/11 20:14:34;;;;;;;4.20;3.90;;;18.60;99.90;;;;;;2614019;54;20131;-74
2022/07/11 20:20:22;;;;;;;4.23;3.50;;;18.40;99.90;;;;;;2615292;54;20150;-74
2022/07/11 20:26:09;;;;;;;5.00;3.70;;;18.20;99.90;;;;;;2615513;39;20578;-74
2022/07/11 20:31:57;;;;;;;4.17;3.77;;;18.00;99.90;;;;;;2614465;46;20152;-74
2022/07/11 20:37:45;;;;;;;3.90;3.50;;;17.90;99.90;;;;;;2615499;39;20525;-74
2022/07/11 20:43:34;;;;;;;3.97;3.67;;;17.90;99.90;;;;;;2614707;54;20134;-75
2022/07/11 20:49:22;;;;;;;4.40;4.00;;;17.80;99.90;;;;;;2615146;54;20453;-74
2022/07/11 20:55:10;;;;;;;3.80;3.50;;;17.70;99.90;;;;;;2615777;54;20138;-75
2022/07/11 21:00:57;;;;;;;3.73;3.40;;;18.00;99.90;;;;;;2616017;54;20635;-74
2022/07/11 21:06:45;;;;;;;4.37;3.20;;;17.90;99.90;;;;;;2615649;54;20396;-74
2022/07/11 21:12:33;;;;;;;3.87;3.33;;;17.60;99.90;;;;;;2615533;54;20131;-74
2022/07/11 21:18:21;;;;;;;4.20;3.80;;;17.50;99.90;;;;;;2615572;54;20205;-78
2022/07/11 21:24:09;;;;;;;4.30;3.30;;;17.40;99.90;;;;;;2615548;54;20133;-77
2022/07/11 21:29:56;;;;;;;6.43;4.10;;;17.30;99.90;;;;;;2615282;54;20130;-75
2022/07/11 21:35:45;;;;;;;4.20;3.90;;;17.10;99.90;;;;;;2615853;54;20150;-75
2022/07/11 21:41:32;;;;;;;5.77;4.23;;;16.90;99.90;;;;;;2615482;54;20209;-75
2022/07/11 21:47:20;;;;;;;7.30;4.60;;;17.10;99.90;;;;;;2615788;54;20150;-75
2022/07/11 21:53:08;;;;;;;3.80;3.50;;;17.00;99.90;;;;;;2616095;39;20519;-75
2022/07/11 21:58:55;;;;;;;4.70;4.30;;;16.70;99.90;;;;;;2615720;54;20173;-75
2022/07/11 22:04:43;;;;;;;5.20;4.80;;;16.70;99.90;;;;;;2615806;39;20595;-74
2022/07/11 22:10:30;;;;;;;5.10;4.60;;;16.60;99.90;;;;;;2615587;54;20130;-75
2022/07/11 22:16:18;;;;;;;3.90;3.60;;;16.60;99.90;;;;;;2615204;54;20728;-75
2022/07/11 22:22:05;;;;;;;5.73;4.20;;;16.50;99.90;;;;;;2615479;54;20440;-75
2022/07/11 22:27:53;;;;;;;4.40;3.97;;;16.30;99.90;;;;;;2615391;54;20195;-75
2022/07/11 22:33:41;;;;;;;4.10;3.80;;;16.30;99.90;;;;;;2615634;54;20164;-76
2022/07/11 22:49:48;;;;;;;4.90;4.50;;;16.00;99.90;;;;;;2614173;54;20369;-74
2022/07/11 22:55:35;;;;;;;4.83;4.43;;;16.10;99.90;;;;;;2613913;54;20157;-75
2022/07/11 23:01:22;;;;;;;5.80;5.10;;;16.00;99.90;;;;;;2614169;54;20655;-75
2022/07/11 23:07:09;;;;;;;8.90;6.53;;;15.80;99.90;;;;;;2613659;54;20679;-74
2022/07/11 23:12:56;;;;;;;6.47;5.80;;;15.70;99.90;;;;;;2613585;54;20127;-74
2022/07/11 23:18:43;;;;;;;7.07;6.30;;;15.70;99.90;;;;;;2613708;54;20134;-74
2022/07/11 23:24:31;;;;;;;5.90;5.40;;;15.70;99.90;;;;;;2615548;54;20127;-74
2022/07/11 23:30:19;;;;;;;6.40;5.80;;;15.70;99.90;;;;;;2615469;54;20123;-74
2022/07/11 23:36:07;;;;;;;6.23;5.60;;;15.70;99.90;;;;;;2615281;54;20424;-74
2022/07/11 23:42:13;;;;;;;7.67;6.13;;;15.60;99.90;;;;;;2614008;54;20274;-74
2022/07/11 23:48:01;;;;;;;9.27;6.07;;;15.40;99.90;;;;;;2613860;54;20168;-74
2022/07/11 23:53:48;;;;;;;7.93;6.10;;;15.40;99.90;;;;;;2614312;54;20694;-74
2022/07/11 23:59:35;;;;;;;7.20;6.23;;;15.50;99.90;;;;;;2613645;54;20122;-74
